Time;durP1;ratioP1;P1;durP2;ratioP2;P2;SDS_P1;SDS_P2;PMS_P1;PMS_P2;Temp;Humidity;BMP_temperature;BMP_pressure;BME280_temperature;BME280_humidity;BME280_pressure;Samples;Min_cycle;Max_cycle;Signal;HPM_P1;HPM_P2
2023/06/01 00:01:12;;;;;;;11.38;2.63;;;;;;;19.12;74.60;99761.53;5091245;28;20409;-84
2023/06/01 00:03:38;;;;;;;2.63;2.05;;;;;;;19.15;74.22;99774.75;5091960;28;20036;-83
2023/06/01 00:06:03;;;;;;;3.88;2.22;;;;;;;19.00;74.75;99765.69;5091035;28;20038;-83
2023/06/01 00:08:29;;;;;;;2.75;1.98;;;;;;;19.05;73.97;99760.97;5091422;28;20500;-83
2023/06/01 00:10:54;;;;;;;2.90;1.92;;;;;;;18.92;75.17;99778.53;5089770;28;20044;-83
2023/06/01 00:13:20;;;;;;;3.90;2.50;;;;;;;18.86;75.48;99782.41;5090886;28;20028;-83
2023/06/01 00:15:45;;;;;;;3.88;2.22;;;;;;;18.76;75.17;99773.03;5090913;28;20425;-84
2023/06/01 00:18:12;;;;;;;3.55;2.47;;;;;;;18.78;75.00;99780.06;5091007;28;20028;-83
2023/06/01 00:20:39;;;;;;;2.17;1.30;;;;;;;18.96;74.73;99783.66;5090881;28;20028;-84
2023/06/01 00:23:05;;;;;;;4.60;2.53;;;;;;;18.87;73.89;99761.88;5089293;28;20127;-83
2023/06/01 00:25:31;;;;;;;4.20;1.98;;;;;;;19.23;72.96;99793.09;5091294;28;20032;-83
2023/06/01 00:27:56;;;;;;;2.88;2.15;;;;;;;18.88;73.70;99756.44;5090128;28;20036;-83
2023/06/01 00:30:22;;;;;;;3.58;2.53;;;;;;;18.82;74.58;99762.06;5090635;28;20051;-84
2023/06/01 00:32:47;;;;;;;4.80;2.35;;;;;;;18.76;74.59;99757.88;5089897;28;20039;-83
2023/06/01 00:35:13;;;;;;;5.65;2.60;;;;;;;18.75;74.84;99765.97;5090957;28;20031;-83
2023/06/01 00:37:38;;;;;;;2.17;1.52;;;;;;;18.70;75.09;99771.53;5088373;28;20052;-84
2023/06/01 00:40:04;;;;;;;5.40;2.45;;;;;;;18.63;75.56;99774.56;5089690;28;20515;-83
2023/06/01 00:42:29;;;;;;;4.95;2.78;;;;;;;18.68;75.27;99789.44;5090195;28;20490;-83
2023/06/01 00:44:55;;;;;;;5.25;2.10;;;;;;;18.81;74.80;99805.75;5090902;28;20448;-84
2023/06/01 00:47:21;;;;;;;3.10;2.08;;;;;;;18.22;75.07;99755.03;5089177;28;20047;-83
2023/06/01 00:49:46;;;;;;;3.58;2.58;;;;;;;18.46;74.70;99802.94;5090387;28;20054;-83
2023/06/01 00:52:13;;;;;;;3.92;2.25;;;;;;;18.26;75.64;99777.13;5090209;28;20074;-84
2023/06/01 00:54:39;;;;;;;2.65;1.88;;;;;;;18.36;75.43;99791.78;5090513;28;20028;-83
2023/06/01 00:57:06;;;;;;;4.07;2.47;;;;;;;18.36;75.02;99780.25;5090461;28;20058;-83
2023/06/01 00:59:33;;;;;;;2.85;2.33;;;;;;;18.35;75.07;99792.75;5089588;28;20043;-83
2023/06/01 01:01:58;;;;;;;3.45;2.35;;;;;;;18.45;74.89;99792.31;5090242;28;20028;-84
2023/06/01 01:04:25;;;;;;;3.60;2.15;;;;;;;18.37;75.43;99785.50;5089719;28;20116;-83
2023/06/01 01:06:56;;;;;;;4.25;1.92;;;;;;;18.55;75.59;99817.66;5090123;28;20024;-84
2023/06/01 01:09:44;;;;;;;10.23;3.03;;;;;;;18.37;75.33;99764.16;5089527;28;20497;-83
2023/06/01 01:12:23;;;;;;;4.38;2.42;;;;;;;18.44;75.27;99770.06;5087261;28;20040;-83
2023/06/01 01:15:25;;;;;;;2.47;2.20;;;;;;;18.74;74.61;99812.34;5089665;28;20035;-83
2023/06/01 01:18:01;;;;;;;7.20;2.72;;;;;;;18.46;74.56;99780.69;5089761;28;20047;-83
2023/06/01 01:20:32;;;;;;;;;;;;;;;18.46;75.40;99808.28;5090683;28;20062;-83
2023/06/01 01:23:05;;;;;;;5.30;3.38;;;;;;;18.45;75.58;99824.38;5087816;28;20321;-83
2023/06/01 01:25:48;;;;;;;3.33;2.10;;;;;;;18.43;75.66;99829.78;5089841;28;20070;-83
2023/06/01 01:28:39;;;;;;;3.15;2.22;;;;;;;18.33;75.82;99810.63;5089398;28;20528;-83
2023/06/01 01:31:08;;;;;;;4.28;2.05;;;;;;;18.30;75.46;99797.41;5089770;28;20092;-83
2023/06/01 01:33:35;;;;;;;2.65;1.90;;;;;;;18.28;75.75;99779.75;5089404;28;20149;-83
2023/06/01 01:36:01;;;;;;;3.75;2.47;;;;;;;18.23;76.10;99777.28;5087744;28;20027;-84
2023/06/01 01:38:26;;;;;;;7.50;2.55;;;;;;;18.22;76.55;99788.88;5087855;28;20454;-83
2023/06/01 01:40:56;;;;;;;6.65;2.85;;;;;;;18.30;76.05;99794.72;5089833;28;20031;-83
2023/06/01 01:43:22;;;;;;;5.00;2.85;;;;;;;18.32;77.04;99808.91;5091326;28;20111;-83
2023/06/01 01:45:57;;;;;;;10.65;4.15;;;;;;;18.16;76.94;99784.69;5093825;28;20522;-83
2023/06/01 01:48:35;;;;;;;6.43;2.47;;;;;;;18.13;76.81;99776.81;5093606;28;20032;-83
2023/06/01 01:51:10;;;;;;;5.25;3.10;;;;;;;18.24;77.12;99795.91;5093827;28;20036;-83
2023/06/01 01:53:38;;;;;;;;;;;;;;;18.28;76.84;99819.78;5094394;28;20032;-84
2023/06/01 01:56:06;;;;;;;3.42;2.13;;;;;;;18.23;77.28;99804.84;5093360;28;19912;-83
2023/06/01 01:58:33;;;;;;;5.13;2.38;;;;;;;17.96;77.56;99774.03;5093412;28;20055;-83
2023/06/01 02:00:59;;;;;;;4.90;2.75;;;;;;;18.07;77.49;99803.78;5093594;28;20071;-84
2023/06/01 02:03:24;;;;;;;5.22;2.58;;;;;;;18.19;77.51;99826.41;5093247;28;20052;-83
2023/06/01 02:05:50;;;;;;;4.32;2.80;;;;;;;17.83;77.62;99779.88;5093346;28;20550;-83
2023/06/01 02:08:15;;;;;;;4.18;2.85;;;;;;;17.92;76.75;99783.09;5093562;28;20028;-83
2023/06/01 02:10:41;;;;;;;5.25;2.80;;;;;;;18.00;76.84;99800.50;5093766;28;20024;-83
2023/06/01 02:13:06;;;;;;;5.05;3.53;;;;;;;17.78;77.31;99789.00;5093100;28;20036;-82
2023/06/01 02:15:32;;;;;;;2.35;1.88;;;;;;;17.74;77.83;99809.63;5091546;28;20093;-82
2023/06/01 02:17:58;;;;;;;8.85;4.72;;;;;;;17.47;77.97;99791.19;5093276;28;20039;-83
2023/06/01 02:20:24;;;;;;;5.13;3.88;;;;;;;17.62;77.89;99810.13;5093273;28;20036;-82
2023/06/01 02:22:50;;;;;;;3.50;2.72;;;;;;;17.44;77.87;99785.09;5093376;28;20051;-83
2023/06/01 02:25:15;;;;;;;6.15;2.88;;;;;;;17.51;78.69;99816.78;5092755;28;20060;-82
2023/06/01 02:27:41;;;;;;;6.25;3.42;;;;;;;17.46;78.66;99824.13;5093278;28;20020;-82
2023/06/01 02:30:07;;;;;;;5.15;2.47;;;;;;;17.44;78.96;99817.09;5093043;28;20093;-83
2023/06/01 02:32:34;;;;;;;10.60;2.75;;;;;;;17.49;79.45;99813.31;5093213;28;20061;-82
2023/06/01 02:35:00;;;;;;;5.50;3.42;;;;;;;17.32;78.82;99806.03;5093340;28;20118;-82
2023/06/01 02:37:26;;;;;;;3.60;3.00;;;;;;;17.60;78.62;99830.69;5092621;28;20440;-83
2023/06/01 02:39:51;;;;;;;4.32;2.88;;;;;;;17.53;78.67;99827.38;5092538;28;20020;-83
2023/06/01 02:42:17;;;;;;;4.25;2.47;;;;;;;17.49;78.66;99805.31;5091310;28;20055;-83
2023/06/01 02:44:42;;;;;;;9.95;3.10;;;;;;;17.49;78.15;99824.00;5092372;28;20035;-84
2023/06/01 02:47:09;;;;;;;3.90;2.95;;;;;;;17.39;78.69;99808.44;5092793;28;20086;-83
2023/06/01 02:49:35;;;;;;;5.95;2.28;;;;;;;17.63;78.31;99835.88;5091395;28;20520;-86
2023/06/01 02:52:00;;;;;;;6.85;4.07;;;;;;;17.39;77.64;99813.75;5092401;28;20051;-83
2023/06/01 02:54:26;;;;;;;2.90;2.00;;;;;;;17.49;77.68;99842.66;5090270;28;20039;-83
2023/06/01 02:56:51;;;;;;;3.63;2.60;;;;;;;17.48;77.37;99853.38;5091862;28;20032;-83
2023/06/01 02:59:17;;;;;;;3.45;2.08;;;;;;;17.46;78.21;99850.78;5092229;28;20085;-83
2023/06/01 03:01:42;;;;;;;5.05;3.08;;;;;;;17.10;78.57;99802.47;5092684;28;20024;-85
2023/06/01 03:04:10;;;;;;;4.47;2.88;;;;;;;17.27;78.87;99848.00;5091573;28;20505;-83
2023/06/01 03:06:37;;;;;;;3.33;2.10;;;;;;;17.18;78.48;99813.72;5091164;28;20558;-82
2023/06/01 03:09:03;;;;;;;4.25;2.95;;;;;;;17.22;78.24;99801.13;5089851;28;20043;-83
2023/06/01 03:11:28;;;;;;;4.22;2.55;;;;;;;17.33;78.96;99853.09;5091763;28;20104;-83
2023/06/01 03:13:56;;;;;;;3.05;2.03;;;;;;;17.27;78.31;99828.44;5091101;28;20438;-84
2023/06/01 03:16:22;;;;;;;5.38;3.25;;;;;;;17.25;78.60;99814.34;5106794;28;20193;-86
2023/06/01 03:18:48;;;;;;;7.07;2.35;;;;;;;17.37;78.75;99835.16;5090488;28;20052;-83
2023/06/01 03:21:13;;;;;;;3.70;2.38;;;;;;;17.29;78.62;99838.13;5091779;28;20047;-83
2023/06/01 03:23:43;;;;;;;3.65;1.80;;;;;;;17.51;78.43;99848.78;5098443;28;20038;-82
2023/06/01 03:26:10;;;;;;;3.38;2.28;;;;;;;17.66;78.09;99849.97;5091580;28;20145;-82
2023/06/01 03:28:35;;;;;;;4.57;2.30;;;;;;;17.46;78.43;99818.78;5098418;28;20024;-83
2023/06/01 03:31:01;;;;;;;5.18;2.83;;;;;;;17.31;78.40;99795.41;5091807;28;20031;-82
2023/06/01 03:33:27;;;;;;;4.45;2.33;;;;;;;17.59;79.16;99851.13;5098120;28;20024;-82
2023/06/01 03:35:53;;;;;;;4.22;2.08;;;;;;;17.65;78.87;99837.53;5099635;28;20482;-82
2023/06/01 03:38:19;;;;;;;5.40;3.40;;;;;;;17.68;78.93;99839.22;5090962;28;20043;-81
2023/06/01 03:40:45;;;;;;;6.82;2.78;;;;;;;17.87;78.40;99856.19;5090597;28;20034;-82
2023/06/01 03:43:11;;;;;;;4.40;3.25;;;;;;;17.97;77.45;99850.50;5090725;28;20028;-82
2023/06/01 03:45:36;;;;;;;4.07;1.75;;;;;;;17.98;77.38;99857.56;5090836;28;20035;-82
2023/06/01 03:48:03;;;;;;;7.53;3.35;;;;;;;18.05;77.07;99835.88;5091577;28;20119;-82
2023/06/01 03:50:29;;;;;;;3.60;2.15;;;;;;;18.00;77.32;99819.19;5091498;28;20107;-82
2023/06/01 03:52:55;;;;;;;4.18;2.42;;;;;;;17.99;77.21;99797.91;5091497;28;20027;-82
2023/06/01 03:55:20;;;;;;;4.68;2.75;;;;;;;18.16;77.69;99842.56;5088533;28;20036;-82
2023/06/01 03:57:46;;;;;;;4.43;2.65;;;;;;;18.29;77.03;99833.06;5090706;28;20093;-83
2023/06/01 04:00:18;;;;;;;7.28;3.28;;;;;;;18.00;77.67;99824.53;5090163;28;20637;-82
2023/06/01 04:03:06;;;;;;;21.15;4.10;;;;;;;18.21;77.23;99838.75;5085423;28;20032;-82
2023/06/01 04:05:32;;;;;;;4.32;3.10;;;;;;;18.42;76.25;99839.56;5090325;28;20462;-81
2023/06/01 04:07:57;;;;;;;7.25;4.30;;;;;;;18.03;76.88;99797.72;5090650;28;20035;-86
2023/06/01 04:10:23;;;;;;;6.88;3.80;;;;;;;18.41;77.08;99856.56;5108610;28;20115;-82
2023/06/01 04:12:50;;;;;;;4.72;2.90;;;;;;;18.64;75.48;99856.44;5108924;28;20111;-83
2023/06/01 04:15:17;;;;;;;4.75;2.95;;;;;;;18.68;75.41;99871.41;5098405;28;20036;-85
2023/06/01 04:17:43;;;;;;;5.75;2.95;;;;;;;18.49;75.70;99820.59;5093644;28;20073;-84
2023/06/01 04:20:15;;;;;;;5.47;2.40;;;;;;;18.76;75.29;99877.25;5090569;28;20896;-83
2023/06/01 04:22:42;;;;;;;4.80;2.65;;;;;;;18.72;74.39;99849.81;5093848;28;20153;-83
2023/06/01 04:25:11;;;;;;;6.03;3.22;;;;;;;19.04;74.12;99882.22;5089297;28;20028;-84
2023/06/01 04:27:44;;;;;;;6.32;4.70;;;;;;;18.99;74.83;99876.22;5089511;28;20043;-84
2023/06/01 04:30:10;;;;;;;4.68;2.42;;;;;;;18.76;75.20;99851.38;5077264;28;20024;-84
2023/06/01 04:32:39;;;;;;;5.50;3.10;;;;;;;18.96;75.36;99884.38;5090658;28;20036;-84
2023/06/01 04:35:05;;;;;;;6.05;3.05;;;;;;;18.92;74.84;99845.34;5089895;28;20421;-84
2023/06/01 04:37:42;;;;;;;5.57;2.25;;;;;;;19.45;72.43;99859.78;5090572;28;20048;-84
2023/06/01 04:40:09;;;;;;;7.22;2.92;;;;;;;19.28;72.93;99858.78;5091154;28;20067;-84
2023/06/01 04:42:41;;;;;;;5.43;3.03;;;;;;;19.27;74.05;99859.72;5081606;28;20131;-84
2023/06/01 04:45:07;;;;;;;17.45;3.45;;;;;;;19.36;73.95;99861.09;5084770;28;20046;-84
2023/06/01 04:47:44;;;;;;;6.43;3.83;;;;;;;19.77;73.27;99884.97;5090310;28;20019;-83
2023/06/01 04:50:11;;;;;;;5.75;2.72;;;;;;;19.90;70.92;99869.16;5089976;28;20027;-84
2023/06/01 04:52:38;;;;;;;3.47;2.30;;;;;;;19.80;70.48;99857.16;5089819;28;20438;-84
2023/06/01 04:55:04;;;;;;;6.85;4.55;;;;;;;19.75;70.87;99864.53;5089951;28;20023;-84
2023/06/01 04:57:32;;;;;;;2.90;2.03;;;;;;;19.62;72.37;99889.25;5089207;28;20482;-84
2023/06/01 04:59:58;;;;;;;5.85;3.30;;;;;;;19.93;72.72;99898.44;5084853;28;20028;-84
2023/06/01 05:02:25;;;;;;;9.27;3.95;;;;;;;20.20;71.54;99893.50;5096290;28;20040;-83
2023/06/01 05:04:51;;;;;;;7.15;3.25;;;;;;;19.93;71.62;99884.19;5092091;28;20082;-82
2023/06/01 05:07:16;;;;;;;5.53;3.08;;;;;;;20.25;69.86;99876.31;5098048;28;20032;-83
2023/06/01 05:09:42;;;;;;;5.88;3.10;;;;;;;19.97;71.76;99843.81;5100088;28;20471;-83
2023/06/01 05:12:07;;;;;;;2.50;2.30;;;;;;;20.03;72.35;99854.22;5090005;28;20062;-83
2023/06/01 05:14:33;;;;;;;5.30;1.90;;;;;;;20.38;70.04;99875.56;5076503;28;20028;-84
2023/06/01 05:16:58;;;;;;;3.63;2.75;;;;;;;20.01;68.82;99877.50;5107054;27;20036;-81
2023/06/01 05:19:24;;;;;;;4.00;2.80;;;;;;;20.13;70.20;99851.06;5095813;28;20082;-81
2023/06/01 05:21:49;;;;;;;4.63;3.67;;;;;;;20.25;69.03;99846.84;5096960;28;20336;-81
2023/06/01 05:24:15;;;;;;;3.40;2.13;;;;;;;20.75;69.00;99883.50;5096636;28;20047;-81
2023/06/01 05:26:40;;;;;;;4.15;2.65;;;;;;;20.96;68.82;99861.81;5091714;28;20035;-81
2023/06/01 05:29:06;;;;;;;3.70;2.28;;;;;;;21.15;67.36;99873.25;5093660;28;20036;-81
2023/06/01 05:31:31;;;;;;;7.68;2.90;;;;;;;21.39;65.50;99883.53;5106557;28;20019;-81
2023/06/01 05:33:57;;;;;;;4.07;2.58;;;;;;;21.40;65.17;99904.06;5089821;28;20020;-82
2023/06/01 05:36:22;;;;;;;4.00;2.53;;;;;;;21.59;64.67;99867.19;5089339;28;20055;-82
2023/06/01 05:38:49;;;;;;;3.05;2.20;;;;;;;22.33;62.44;99894.22;5088395;28;20036;-81
2023/06/01 05:41:15;;;;;;;5.90;3.70;;;;;;;21.49;65.17;99863.31;5096566;28;20019;-82
2023/06/01 05:43:40;;;;;;;3.17;2.08;;;;;;;22.12;61.97;99889.16;5089174;28;20118;-81
2023/06/01 05:46:06;;;;;;;3.05;2.13;;;;;;;22.01;63.75;99880.88;5084708;28;20073;-82
2023/06/01 05:48:32;;;;;;;3.35;1.77;;;;;;;22.56;61.67;99874.00;5083829;28;20040;-82
2023/06/01 05:50:57;;;;;;;2.47;1.92;;;;;;;23.10;59.09;99877.84;5087087;28;20203;-83
2023/06/01 05:53:24;;;;;;;5.88;3.92;;;;;;;23.14;61.19;99876.69;5079198;28;20537;-83
2023/06/01 05:55:51;;;;;;;5.22;3.55;;;;;;;23.49;58.49;99884.28;5084959;28;20061;-83
2023/06/01 05:58:17;;;;;;;4.25;2.58;;;;;;;23.94;56.69;99892.97;5084065;28;20135;-83
2023/06/01 06:00:42;;;;;;;4.82;2.90;;;;;;;24.27;55.98;99862.88;5073683;28;20559;-83
2023/06/01 06:03:08;;;;;;;6.40;3.17;;;;;;;23.44;58.17;99872.97;5096467;28;20028;-82
2023/06/01 06:05:33;;;;;;;5.22;3.13;;;;;;;23.60;57.96;99898.78;5087742;28;20085;-82
2023/06/01 06:07:59;;;;;;;5.15;3.20;;;;;;;23.34;59.10;99880.78;5087661;28;20077;-83
2023/06/01 06:10:24;;;;;;;3.38;2.35;;;;;;;23.67;56.35;99858.84;5089571;28;20488;-83
2023/06/01 06:12:50;;;;;;;6.38;2.72;;;;;;;23.47;56.70;99853.94;5105169;28;20114;-83
2023/06/01 06:15:16;;;;;;;3.85;2.03;;;;;;;24.23;54.77;99847.03;5107724;28;20093;-83
2023/06/01 06:17:42;;;;;;;15.48;2.47;;;;;;;24.21;54.98;99863.31;5109572;28;20035;-84
2023/06/01 06:20:08;;;;;;;2.90;2.20;;;;;;;24.63;53.41;99842.41;5109818;28;20027;-83
2023/06/01 06:22:34;;;;;;;3.80;1.67;;;;;;;24.43;54.86;99865.34;5109363;28;20493;-83
2023/06/01 06:25:00;;;;;;;3.97;2.10;;;;;;;24.52;53.98;99839.59;5109887;28;20031;-83
2023/06/01 06:27:26;;;;;;;4.68;2.38;;;;;;;25.00;52.81;99860.50;5107416;28;20467;-83
2023/06/01 06:29:51;;;;;;;6.05;3.67;;;;;;;25.43;51.59;99848.41;5110609;28;20084;-83
2023/06/01 06:32:19;;;;;;;5.68;2.28;;;;;;;24.99;50.72;99865.03;5106659;28;20028;-82
2023/06/01 06:34:45;;;;;;;5.20;2.97;;;;;;;25.02;50.58;99850.44;5092899;28;20090;-81
2023/06/01 06:37:11;;;;;;;2.95;1.85;;;;;;;25.47;52.26;99844.47;5111697;28;20509;-82
2023/06/01 06:39:37;;;;;;;5.97;2.47;;;;;;;25.44;50.61;99872.59;5113581;27;20035;-82
2023/06/01 06:42:05;;;;;;;4.53;3.35;;;;;;;26.01;49.54;99851.25;5113134;28;20030;-82
2023/06/01 06:44:30;;;;;;;4.60;2.28;;;;;;;25.93;48.95;99881.53;5112780;28;20520;-82
2023/06/01 06:47:00;;;;;;;4.65;2.20;;;;;;;26.12;50.75;99867.50;5113655;28;20031;-82
2023/06/01 06:49:26;;;;;;;9.57;3.28;;;;;;;26.29;50.65;99851.81;5112829;28;20119;-82
2023/06/01 06:51:51;;;;;;;3.88;2.08;;;;;;;26.08;49.12;99868.72;5113412;28;20461;-81
2023/06/01 06:54:17;;;;;;;4.88;2.47;;;;;;;26.24;48.63;99854.88;5112781;28;20027;-82
2023/06/01 06:56:42;;;;;;;4.00;2.58;;;;;;;27.01;45.74;99867.72;5112533;28;20386;-81
2023/06/01 06:59:08;;;;;;;2.60;2.40;;;;;;;26.52;46.87;99845.44;5112363;28;20062;-82
2023/06/01 07:01:37;;;;;;;4.53;2.05;;;;;;;26.85;48.37;99867.25;5113055;28;20073;-82
2023/06/01 07:04:05;;;;;;;5.05;2.67;;;;;;;26.96;48.29;99856.44;5112602;28;20023;-82
2023/06/01 07:06:32;;;;;;;4.90;3.45;;;;;;;27.01;46.85;99866.88;5112918;28;20461;-82
2023/06/01 07:08:58;;;;;;;3.90;2.45;;;;;;;27.47;45.71;99871.28;5112631;28;20023;-82
2023/06/01 07:11:24;;;;;;;5.00;2.63;;;;;;;27.52;45.55;99845.50;5112737;28;20092;-81
2023/06/01 07:13:49;;;;;;;3.95;2.38;;;;;;;27.37;47.57;99868.44;5112791;28;20055;-81
2023/06/01 07:16:14;;;;;;;3.65;1.77;;;;;;;27.76;47.46;99859.81;5112831;28;20206;-81
2023/06/01 07:18:40;;;;;;;4.40;2.70;;;;;;;27.84;44.08;99841.06;5113023;28;20023;-82
2023/06/01 07:21:06;;;;;;;4.05;2.40;;;;;;;27.92;43.04;99849.41;5112430;28;20030;-81
2023/06/01 07:23:31;;;;;;;3.42;1.98;;;;;;;27.80;42.18;99829.63;5112251;28;20024;-82
2023/06/01 07:25:57;;;;;;;4.45;2.17;;;;;;;27.85;41.97;99840.06;5112110;28;20034;-83
2023/06/01 07:28:25;;;;;;;3.42;2.10;;;;;;;28.54;41.67;99852.25;5112162;28;20039;-84
2023/06/01 07:30:51;;;;;;;3.88;1.85;;;;;;;28.18;41.85;99854.47;5111967;28;20468;-83
2023/06/01 07:33:17;;;;;;;2.78;1.83;;;;;;;28.25;41.92;99822.25;5112324;28;20031;-83
2023/06/01 07:35:43;;;;;;;10.13;7.55;;;;;;;28.91;40.09;99838.16;5111936;28;20030;-83
2023/06/01 07:38:09;;;;;;;8.80;6.85;;;;;;;29.20;40.35;99832.00;5111500;28;20073;-83
2023/06/01 07:40:35;;;;;;;10.93;7.85;;;;;;;29.49;39.65;99834.75;5111409;28;20048;-83
2023/06/01 07:43:00;;;;;;;5.40;2.80;;;;;;;28.94;41.30;99856.91;5111627;27;20110;-83
2023/06/01 07:45:26;;;;;;;4.10;2.08;;;;;;;29.49;41.01;99840.19;5112138;28;20118;-84
2023/06/01 07:47:53;;;;;;;3.58;1.83;;;;;;;29.15;39.56;99816.09;5111801;28;20027;-83
2023/06/01 07:50:19;;;;;;;3.75;2.28;;;;;;;29.15;40.63;99831.50;5110404;28;20038;-85
2023/06/01 07:52:45;;;;;;;4.43;2.88;;;;;;;29.94;39.20;99815.19;5111409;28;20114;-83
2023/06/01 07:55:11;;;;;;;4.50;2.58;;;;;;;29.96;38.86;99790.56;5111647;27;20030;-83
2023/06/01 07:57:36;;;;;;;5.57;2.33;;;;;;;30.07;38.80;99836.63;5111252;28;20036;-84
2023/06/01 08:00:07;;;;;;;4.07;2.78;;;;;;;30.62;39.10;99822.34;5111508;28;20034;-84
2023/06/01 08:02:33;;;;;;;7.70;2.17;;;;;;;30.61;39.02;99806.16;5111364;28;20024;-84
2023/06/01 08:04:59;;;;;;;3.33;2.63;;;;;;;30.80;38.68;99833.31;5111346;28;20550;-84
2023/06/01 08:07:27;;;;;;;3.90;2.65;;;;;;;30.13;39.58;99783.50;5111490;28;20031;-84
2023/06/01 08:09:53;;;;;;;6.00;2.38;;;;;;;29.65;40.14;99820.59;5111483;27;20074;-83
2023/06/01 08:12:19;;;;;;;3.58;1.80;;;;;;;30.20;39.55;99827.28;5111302;27;20427;-84
2023/06/01 08:14:44;;;;;;;3.28;2.08;;;;;;;29.45;39.15;99795.28;5110806;28;20058;-83
2023/06/01 08:17:11;;;;;;;2.80;1.95;;;;;;;29.61;40.31;99801.03;5111290;28;20028;-83
2023/06/01 08:19:37;;;;;;;2.88;1.92;;;;;;;29.58;39.42;99811.28;5110909;28;20024;-83
2023/06/01 08:22:05;;;;;;;3.55;2.40;;;;;;;29.59;39.75;99785.84;5111326;28;20149;-83
2023/06/01 08:24:32;;;;;;;5.07;2.35;;;;;;;29.86;38.91;99815.06;5111201;28;20031;-84
2023/06/01 08:26:58;;;;;;;2.65;1.73;;;;;;;30.27;41.30;99814.84;5111371;28;20046;-83
2023/06/01 08:29:23;;;;;;;2.78;1.83;;;;;;;30.03;40.07;99799.88;5110943;28;20413;-84
2023/06/01 08:31:49;;;;;;;4.55;2.17;;;;;;;30.39;39.02;99777.44;5110953;28;20046;-84
2023/06/01 08:34:14;;;;;;;2.42;1.55;;;;;;;30.31;39.27;99789.06;5110955;28;20028;-84
2023/06/01 08:36:40;;;;;;;3.30;2.15;;;;;;;30.50;38.61;99793.59;5110390;28;20126;-83
2023/06/01 08:39:23;;;;;;;3.42;1.73;;;;;;;30.04;39.96;99770.78;5110660;28;20023;-83
2023/06/01 08:42:16;;;;;;;2.30;1.55;;;;;;;30.21;39.16;99818.13;5091920;28;20208;-83
2023/06/01 08:44:42;;;;;;;2.55;1.65;;;;;;;30.44;38.57;99788.75;5089483;28;20032;-83
2023/06/01 08:47:08;;;;;;;3.60;1.63;;;;;;;30.40;38.39;99790.03;5089169;28;20473;-84
2023/06/01 08:49:35;;;;;;;2.38;1.50;;;;;;;30.43;39.26;99801.50;5089271;28;20055;-83
2023/06/01 08:52:11;;;;;;;3.88;1.73;;;;;;;30.39;37.95;99802.81;5089422;28;20039;-83
2023/06/01 08:54:37;;;;;;;3.05;2.42;;;;;;;30.34;38.23;99778.72;5089116;28;20054;-84
2023/06/01 08:57:09;;;;;;;2.72;1.75;;;;;;;30.67;37.43;99792.78;5089336;28;20028;-83
2023/06/01 08:59:36;;;;;;;4.13;2.70;;;;;;;30.75;36.70;99756.66;5091841;28;20038;-86
2023/06/01 09:02:02;;;;;;;6.40;2.08;;;;;;;31.10;34.83;99776.81;5084280;28;20111;-84
2023/06/01 09:04:30;;;;;;;3.60;2.22;;;;;;;30.87;36.54;99782.66;5088665;28;20139;-85
2023/06/01 09:06:56;;;;;;;4.25;2.42;;;;;;;30.63;36.89;99741.53;5088676;28;20062;-85
2023/06/01 09:09:22;;;;;;;4.15;1.92;;;;;;;30.59;37.49;99764.63;5080014;28;20119;-85
2023/06/01 09:11:47;;;;;;;1.85;1.40;;;;;;;30.89;36.88;99761.59;5088452;28;20502;-85
2023/06/01 09:14:23;;;;;;;3.65;1.73;;;;;;;30.82;34.96;99751.47;5086730;28;20073;-85
2023/06/01 09:16:49;;;;;;;2.00;1.33;;;;;;;30.52;32.60;99759.78;5088950;28;20103;-84
2023/06/01 09:19:15;;;;;;;4.35;1.88;;;;;;;30.98;33.71;99750.81;5084099;28;20040;-85
2023/06/01 09:22:01;;;;;;;3.53;1.83;;;;;;;31.08;36.43;99777.97;5085496;28;20036;-85
2023/06/01 09:24:27;;;;;;;3.47;1.70;;;;;;;30.70;35.67;99765.28;5090681;28;20515;-85
2023/06/01 09:27:02;;;;;;;1.75;1.15;;;;;;;30.05;34.18;99727.13;5093616;28;20064;-86
2023/06/01 09:29:27;;;;;;;2.70;1.73;;;;;;;30.44;33.28;99737.91;5088318;28;20062;-86
2023/06/01 09:31:53;;;;;;;5.18;3.58;;;;;;;30.51;34.73;99736.28;5093276;28;20063;-86
2023/06/01 09:34:20;;;;;;;254.27;163.35;;;;;;;30.46;34.71;99756.78;5088742;28;20461;-85
2023/06/01 09:36:50;;;;;;;757.38;591.50;;;;;;;30.25;33.56;99737.97;5091159;28;20105;-84
2023/06/01 09:39:17;;;;;;;448.05;288.83;;;;;;;30.51;35.42;99746.34;5097455;28;20040;-85
2023/06/01 09:41:54;;;;;;;107.70;80.05;;;;;;;30.30;34.53;99705.72;5092787;28;20489;-84
2023/06/01 09:44:27;;;;;;;188.23;97.40;;;;;;;30.68;35.94;99718.28;5104045;28;20015;-86
2023/06/01 09:46:56;;;;;;;117.03;61.72;;;;;;;29.79;34.74;99732.31;5088393;28;20087;-83
2023/06/01 09:49:26;;;;;;;233.25;104.57;;;;;;;30.34;34.45;99727.03;5088504;28;20386;-85
2023/06/01 09:52:07;;;;;;;103.55;40.17;;;;;;;30.74;34.28;99757.69;5066995;28;20472;-83
2023/06/01 09:54:42;;;;;;;124.65;54.85;;;;;;;30.66;35.33;99746.66;5080635;28;20034;-84
2023/06/01 09:57:08;;;;;;;65.93;42.28;;;;;;;30.44;33.08;99737.91;5094462;28;20033;-87
2023/06/01 09:59:44;;;;;;;9.45;4.57;;;;;;;30.04;31.92;99732.72;5117885;27;20041;-86
2023/06/01 10:02:18;;;;;;;8.98;1.83;;;;;;;30.35;31.71;99685.22;5090112;28;20082;-86
2023/06/01 10:04:55;;;;;;;3.78;2.13;;;;;;;30.34;32.94;99699.81;5085741;28;20508;-86
2023/06/01 10:07:22;;;;;;;1.70;1.08;;;;;;;30.20;31.72;99713.06;5095167;28;20032;-86
2023/06/01 10:09:58;;;;;;;1.60;0.88;;;;;;;29.82;33.42;99710.31;5093966;28;20050;-86
2023/06/01 10:12:25;;;;;;;2.50;1.38;;;;;;;29.46;32.67;99691.91;5099810;28;20111;-85
2023/06/01 10:14:51;;;;;;;2.65;1.17;;;;;;;29.01;31.97;99684.31;5111622;28;20035;-85
2023/06/01 10:17:18;;;;;;;2.47;1.60;;;;;;;29.61;33.62;99729.47;5113125;28;20036;-84
2023/06/01 10:19:45;;;;;;;1.90;1.70;;;;;;;29.20;33.27;99707.91;5102508;28;20141;-84
2023/06/01 10:22:11;;;;;;;3.22;1.50;;;;;;;29.51;34.49;99698.75;5098858;28;20016;-86
2023/06/01 10:24:40;;;;;;;2.42;1.52;;;;;;;29.37;34.18;99714.50;5092441;28;20520;-86
2023/06/01 10:27:06;;;;;;;2.53;1.20;;;;;;;29.34;31.26;99716.66;5092129;28;20024;-85
2023/06/01 10:29:32;;;;;;;4.32;1.00;;;;;;;29.43;32.80;99691.34;5072920;28;20410;-85
2023/06/01 10:31:58;;;;;;;2.15;1.25;;;;;;;29.39;32.82;99684.47;5082266;28;20111;-84
2023/06/01 10:34:40;;;;;;;4.88;1.48;;;;;;;29.73;31.11;99692.97;5092400;28;20489;-85
2023/06/01 10:37:12;;;;;;;3.80;1.20;;;;;;;29.40;33.14;99703.34;5092593;28;20044;-85
2023/06/01 10:39:40;;;;;;;1.70;1.20;;;;;;;29.50;32.08;99684.31;5092252;28;20032;-84
2023/06/01 10:42:12;;;;;;;2.28;1.42;;;;;;;29.43;33.23;99697.63;5092168;28;20527;-84
2023/06/01 10:44:46;;;;;;;1.52;1.10;;;;;;;29.36;31.34;99693.75;5092293;28;20028;-86
2023/06/01 10:47:12;;;;;;;2.35;1.10;;;;;;;28.91;32.87;99697.84;5092159;28;20123;-86
2023/06/01 10:49:46;;;;;;;2.40;0.88;;;;;;;29.65;33.03;99668.41;5092525;28;20549;-87
2023/06/01 10:52:41;;;;;;;2.25;1.20;;;;;;;29.25;32.66;99683.06;5091745;28;20069;-87
2023/06/01 10:55:06;;;;;;;1.95;1.33;;;;;;;29.28;32.48;99680.91;5094279;28;20507;-85
2023/06/01 10:57:36;;;;;;;3.80;1.33;;;;;;;29.28;31.22;99670.03;5100368;28;20027;-84
2023/06/01 11:00:10;;;;;;;1.20;1.00;;;;;;;29.64;34.04;99666.69;5087695;28;20406;-85
2023/06/01 11:02:53;;;;;;;1.30;0.85;;;;;;;29.31;32.68;99640.88;5081850;28;20056;-85
2023/06/01 11:05:40;;;;;;;1.45;0.88;;;;;;;29.28;34.88;99671.91;5084998;28;20498;-85
2023/06/01 11:08:14;;;;;;;2.25;1.33;;;;;;;29.18;34.07;99671.00;5088556;28;20109;-84
2023/06/01 11:10:52;;;;;;;3.30;1.45;;;;;;;29.18;34.46;99662.84;5097745;28;20130;-86
2023/06/01 11:13:19;;;;;;;2.58;1.40;;;;;;;29.24;31.50;99643.31;5089284;28;20116;-85
2023/06/01 11:16:03;;;;;;;1.70;1.13;;;;;;;29.50;31.66;99654.41;5089499;28;20081;-85
2023/06/01 11:18:45;;;;;;;2.10;1.08;;;;;;;29.48;32.49;99653.72;5097226;28;20048;-85
2023/06/01 11:21:18;;;;;;;1.83;1.23;;;;;;;29.33;31.53;99636.16;5097024;28;20035;-85
2023/06/01 11:23:48;;;;;;;4.60;1.17;;;;;;;29.44;34.81;99642.28;5090759;28;20139;-85
2023/06/01 11:26:29;;;;;;;2.05;1.30;;;;;;;29.31;32.93;99625.44;5100677;28;20036;-85
2023/06/01 11:29:16;;;;;;;2.97;1.38;;;;;;;29.50;32.59;99620.97;5079621;28;20189;-86
2023/06/01 11:31:46;;;;;;;3.65;1.40;;;;;;;29.23;31.04;99609.03;5089497;28;20066;-86
2023/06/01 11:34:13;;;;;;;1.40;1.08;;;;;;;29.67;31.21;99620.19;5089395;28;20119;-87
2023/06/01 11:36:41;;;;;;;4.38;1.45;;;;;;;29.11;30.32;99597.41;5093060;28;20052;-86